Time;durP1;ratioP1;P1;durP2;ratioP2;P2;SDS_P1;SDS_P2;PMS_P1;PMS_P2;Temp;Humidity;BMP_temperature;BMP_pressure;BME280_temperature;BME280_humidity;BME280_pressure;Samples;Min_cycle;Max_cycle;Signal;HPM_P1;HPM_P2
2023/03/20 00:00:09;;;;;;;24.07;12.57;;;10.30;99.90;;;;;;5061455;28;20508;-60
2023/03/20 00:02:37;;;;;;;33.77;17.60;;;10.30;99.90;;;;;;5068827;28;20487;-60
2023/03/20 00:05:15;;;;;;;26.00;13.97;;;10.30;99.90;;;;;;5064623;28;20491;-60
2023/03/20 00:07:42;;;;;;;31.70;16.27;;;10.20;99.90;;;;;;5057723;28;20538;-61
2023/03/20 00:10:10;;;;;;;40.37;18.60;;;10.20;99.90;;;;;;5067317;28;20683;-60
2023/03/20 00:12:37;;;;;;;31.70;16.87;;;10.50;99.90;;;;;;5050093;28;20481;-60
2023/03/20 00:15:16;;;;;;;33.50;15.50;;;10.30;99.90;;;;;;5073384;28;20875;-61
2023/03/20 00:17:43;;;;;;;29.33;17.23;;;10.30;99.90;;;;;;5057115;28;20954;-60
2023/03/20 00:20:15;;;;;;;36.40;16.77;;;10.30;99.90;;;;;;5077058;28;20549;-60
2023/03/20 00:22:41;;;;;;;27.90;14.77;;;10.40;99.90;;;;;;5065446;28;20870;-60
2023/03/20 00:25:12;;;;;;;33.27;18.00;;;10.40;99.90;;;;;;5061716;28;20486;-61
2023/03/20 00:27:39;;;;;;;30.13;16.67;;;10.40;99.90;;;;;;5069102;28;20722;-60
2023/03/20 00:30:19;;;;;;;33.83;15.93;;;10.30;99.90;;;;;;5066882;28;20470;-60
2023/03/20 00:32:46;;;;;;;27.07;16.50;;;10.40;99.90;;;;;;5053678;28;20486;-61
2023/03/20 00:35:18;;;;;;;27.60;15.13;;;10.50;99.90;;;;;;5074903;28;20474;-61
2023/03/20 00:37:45;;;;;;;28.50;16.37;;;10.40;99.90;;;;;;5061316;28;20542;-61
2023/03/20 00:40:13;;;;;;;29.43;18.63;;;10.40;99.90;;;;;;5065628;28;21000;-60
2023/03/20 00:42:40;;;;;;;37.77;16.97;;;9.60;99.90;;;;;;5080832;28;20475;-60
2023/03/20 00:45:13;;;;;;;21.10;11.73;;;10.50;99.90;;;;;;5069589;28;20999;-61
2023/03/20 00:47:41;;;;;;;26.83;15.60;;;10.50;99.90;;;;;;5068125;28;21024;-61
2023/03/20 00:50:15;;;;;;;24.80;12.03;;;10.50;99.90;;;;;;5056223;28;20489;-61
2023/03/20 00:52:43;;;;;;;30.03;17.40;;;10.60;99.90;;;;;;5057207;28;20486;-61
2023/03/20 00:55:10;;;;;;;25.63;15.10;;;10.50;99.90;;;;;;5053793;27;20477;-60
2023/03/20 00:57:40;;;;;;;23.10;13.83;;;10.60;99.90;;;;;;5083192;28;20478;-61
2023/03/20 01:00:22;;;;;;;27.27;14.40;;;10.60;99.90;;;;;;5067278;28;20719;-61
2023/03/20 01:02:51;;;;;;;28.07;15.00;;;10.60;99.90;;;;;;5073202;28;20488;-61
2023/03/20 01:05:18;;;;;;;42.33;20.87;;;10.60;99.90;;;;;;5070820;28;20527;-60
2023/03/20 01:07:46;;;;;;;34.43;15.63;;;10.50;99.90;;;;;;5060635;28;20482;-60
2023/03/20 01:10:13;;;;;;;35.60;19.57;;;10.50;99.90;;;;;;5079513;28;20478;-60
2023/03/20 01:12:41;;;;;;;24.70;14.60;;;10.50;99.90;;;;;;5068498;28;20888;-60
2023/03/20 01:15:17;;;;;;;25.43;13.77;;;10.50;99.90;;;;;;5082677;28;20546;-60
2023/03/20 01:17:44;;;;;;;22.50;13.30;;;10.50;99.90;;;;;;5060353;28;20489;-60
2023/03/20 01:20:16;;;;;;;32.77;16.80;;;10.50;99.90;;;;;;5067241;28;21232;-60
2023/03/20 01:22:43;;;;;;;26.37;13.30;;;10.50;99.90;;;;;;5043034;28;20492;-61
2023/03/20 01:25:10;;;;;;;27.93;15.67;;;10.60;99.90;;;;;;5066270;28;20486;-60
2023/03/20 01:27:37;;;;;;;28.40;15.00;;;10.60;99.90;;;;;;5074483;28;20588;-60
2023/03/20 01:30:17;;;;;;;29.30;15.63;;;10.50;99.90;;;;;;5072290;28;20518;-60
2023/03/20 01:32:45;;;;;;;24.47;13.10;;;10.60;99.90;;;;;;5081592;28;20494;-60
2023/03/20 01:35:15;;;;;;;31.03;13.93;;;10.60;99.90;;;;;;5065714;28;20531;-60
2023/03/20 01:37:42;;;;;;;28.67;15.50;;;10.60;99.90;;;;;;5085676;28;20482;-60
2023/03/20 01:40:23;;;;;;;24.40;14.23;;;10.60;99.90;;;;;;5072248;28;20482;-60
2023/03/20 01:42:50;;;;;;;28.90;15.10;;;10.70;99.90;;;;;;5068851;28;20486;-60
2023/03/20 01:45:21;;;;;;;35.43;18.83;;;10.70;99.90;;;;;;5064086;28;20784;-60
2023/03/20 01:47:48;;;;;;;28.57;12.60;;;10.70;99.90;;;;;;5051082;28;20489;-60
2023/03/20 01:50:26;;;;;;;30.90;16.77;;;10.70;99.90;;;;;;5077795;28;21021;-61
2023/03/20 01:53:06;;;;;;;23.33;14.43;;;10.70;99.90;;;;;;5072370;28;20504;-61
2023/03/20 01:55:33;;;;;;;27.47;15.73;;;10.70;99.90;;;;;;5074290;28;20485;-61
2023/03/20 01:58:03;;;;;;;27.83;15.53;;;10.80;99.90;;;;;;5079020;28;20486;-60
2023/03/20 02:00:30;;;;;;;30.10;15.30;;;10.80;99.90;;;;;;5073605;28;20556;-61
2023/03/20 02:02:58;;;;;;;27.13;15.90;;;10.80;99.90;;;;;;5093194;28;20573;-60
2023/03/20 02:05:27;;;;;;;39.73;19.30;;;;;;;;;;5077794;28;20482;-61
2023/03/20 02:08:01;;;;;;;27.93;15.47;;;10.80;99.90;;;;;;5079221;28;20485;-60
2023/03/20 02:10:28;;;;;;;34.80;17.73;;;10.80;99.90;;;;;;5070254;28;21133;-61
2023/03/20 02:12:55;;;;;;;25.20;14.47;;;10.80;99.90;;;;;;5073756;28;21024;-60
2023/03/20 02:15:22;;;;;;;36.80;18.57;;;11.40;99.90;;;;;;5082932;28;20541;-61
2023/03/20 02:17:49;;;;;;;28.97;16.10;;;10.70;99.90;;;;;;5078503;28;20484;-61
2023/03/20 02:20:27;;;;;;;45.43;15.87;;;10.80;99.90;;;;;;5075582;28;20938;-61
2023/03/20 02:23:43;;;;;;;30.50;15.40;;;10.70;99.90;;;;;;5070356;28;20477;-61
2023/03/20 02:26:26;;;;;;;33.80;19.60;;;10.70;99.90;;;;;;5095223;28;20862;-60
2023/03/20 02:29:19;;;;;;;33.63;19.47;;;10.60;99.90;;;;;;5082757;28;21017;-61
2023/03/20 02:32:19;;;;;;;39.10;17.20;;;10.50;99.90;;;;;;5059082;28;20567;-61
2023/03/20 02:35:09;;;;;;;32.37;13.80;;;10.40;99.90;;;;;;5072406;28;20861;-61
2023/03/20 02:38:04;;;;;;;27.00;14.90;;;10.50;99.90;;;;;;5059647;28;20470;-60
2023/03/20 02:40:37;;;;;;;32.37;17.43;;;10.50;99.90;;;;;;5068758;28;20576;-60
2023/03/20 02:43:15;;;;;;;29.33;16.50;;;10.50;99.90;;;;;;5077663;28;20892;-60
2023/03/20 02:45:52;;;;;;;36.13;17.70;;;10.50;99.90;;;;;;5060894;28;20883;-61
2023/03/20 02:48:28;;;;;;;43.07;23.23;;;10.50;99.90;;;;;;5076193;28;20842;-60
2023/03/20 02:51:00;;;;;;;35.77;16.80;;;10.40;99.90;;;;;;5055808;28;20487;-61
2023/03/20 02:53:39;;;;;;;38.13;20.90;;;10.40;99.90;;;;;;5079726;28;20969;-60
2023/03/20 02:56:12;;;;;;;35.43;16.70;;;10.30;99.90;;;;;;5071410;28;20482;-60
2023/03/20 02:58:44;;;;;;;33.93;18.17;;;10.30;99.90;;;;;;5081934;27;20481;-61
2023/03/20 03:01:16;;;;;;;37.97;19.80;;;10.20;99.90;;;;;;5075371;28;20468;-61
2023/03/20 03:03:48;;;;;;;34.97;20.33;;;10.20;99.90;;;;;;5076818;28;20485;-60
2023/03/20 03:06:20;;;;;;;36.23;19.30;;;10.20;99.90;;;;;;5083812;28;20478;-60
2023/03/20 03:08:52;;;;;;;29.47;17.00;;;10.20;99.90;;;;;;5069079;28;20601;-60
2023/03/20 03:11:19;;;;;;;39.83;20.37;;;10.10;99.90;;;;;;5069337;28;20576;-60
2023/03/20 03:13:50;;;;;;;32.60;15.60;;;10.20;99.90;;;;;;5084459;28;20524;-60
2023/03/20 03:16:22;;;;;;;36.63;20.80;;;10.20;99.90;;;;;;5078442;28;20467;-61
2023/03/20 03:18:54;;;;;;;41.57;20.40;;;10.20;99.90;;;;;;5071326;28;20471;-62
2023/03/20 03:21:22;;;;;;;48.40;21.57;;;10.10;99.90;;;;;;5072219;28;20477;-60
2023/03/20 03:23:52;;;;;;;33.07;16.73;;;10.00;99.90;;;;;;5087505;28;21078;-60
2023/03/20 03:26:22;;;;;;;37.93;19.67;;;10.00;99.90;;;;;;5086668;28;20515;-60
2023/03/20 03:28:52;;;;;;;30.87;16.37;;;10.00;99.90;;;;;;5094082;28;20485;-61
2023/03/20 03:31:20;;;;;;;43.57;20.53;;;10.00;99.90;;;;;;5077709;28;20528;-61
2023/03/20 03:33:50;;;;;;;34.30;17.83;;;10.00;99.90;;;;;;5080158;28;20816;-60
2023/03/20 03:36:27;;;;;;;49.33;24.23;;;10.00;99.90;;;;;;5055622;28;20886;-61
2023/03/20 03:39:01;;;;;;;35.47;16.43;;;10.10;99.90;;;;;;5083084;27;21142;-60
2023/03/20 03:41:32;;;;;;;37.17;18.37;;;10.10;99.90;;;;;;5073530;28;20474;-60
2023/03/20 03:44:08;;;;;;;40.47;17.90;;;10.10;99.90;;;;;;5077490;28;20486;-61
2023/03/20 03:46:41;;;;;;;27.53;15.50;;;10.10;99.90;;;;;;5066158;28;20482;-61
2023/03/20 03:49:12;;;;;;;39.27;18.13;;;10.20;99.90;;;;;;5093660;28;20473;-60
2023/03/20 03:51:44;;;;;;;54.40;20.33;;;10.10;99.90;;;;;;5081028;28;20486;-61
2023/03/20 03:54:15;;;;;;;48.43;23.50;;;10.10;99.90;;;;;;5057861;28;20547;-61
2023/03/20 03:56:46;;;;;;;36.53;17.03;;;10.10;99.90;;;;;;5083659;28;20880;-60
2023/03/20 03:59:17;;;;;;;41.97;20.57;;;10.10;99.90;;;;;;5072645;28;20485;-60
2023/03/20 04:01:46;;;;;;;45.47;21.13;;;10.10;99.90;;;;;;5070434;28;20984;-61
2023/03/20 04:04:14;;;;;;;48.10;22.60;;;9.90;99.90;;;;;;5060881;28;20490;-60
2023/03/20 04:06:42;;;;;;;38.10;17.00;;;10.00;99.90;;;;;;5079104;28;20551;-61
2023/03/20 04:09:08;;;;;;;47.17;20.37;;;10.00;99.90;;;;;;5077209;28;20678;-61
2023/03/20 04:11:37;;;;;;;37.77;19.80;;;10.00;99.90;;;;;;5077016;28;20605;-61
2023/03/20 04:14:03;;;;;;;34.47;17.90;;;10.00;99.90;;;;;;5070858;28;20512;-61
2023/03/20 04:16:30;;;;;;;41.77;21.80;;;10.00;99.90;;;;;;5073709;28;20879;-61
2023/03/20 04:18:57;;;;;;;47.53;16.90;;;10.00;99.90;;;;;;5061488;28;20495;-61
2023/03/20 04:21:24;;;;;;;42.87;21.50;;;10.10;99.90;;;;;;5072800;28;20490;-60
2023/03/20 04:23:51;;;;;;;35.17;16.80;;;10.00;99.90;;;;;;5067419;28;20475;-61
2023/03/20 04:26:17;;;;;;;47.17;19.40;;;9.90;99.90;;;;;;5055412;28;20479;-61
2023/03/20 04:28:45;;;;;;;32.17;15.70;;;10.00;99.90;;;;;;5052188;28;20486;-60
2023/03/20 04:31:13;;;;;;;40.80;19.53;;;10.00;99.90;;;;;;5081897;28;20722;-60
2023/03/20 04:33:40;;;;;;;59.83;20.20;;;10.10;99.90;;;;;;5076010;28;20883;-61
2023/03/20 04:36:08;;;;;;;33.40;16.87;;;10.10;99.90;;;;;;5078179;28;21024;-61
2023/03/20 04:38:35;;;;;;;54.20;22.83;;;10.20;99.90;;;;;;5067784;28;20481;-60
2023/03/20 04:41:02;;;;;;;37.90;17.30;;;10.10;99.90;;;;;;5084432;28;21032;-61
2023/03/20 04:43:29;;;;;;;37.47;18.00;;;10.10;99.90;;;;;;5089643;28;20479;-60
2023/03/20 04:45:57;;;;;;;32.53;18.17;;;10.10;99.90;;;;;;5083394;28;20564;-61
2023/03/20 04:48:24;;;;;;;48.93;21.80;;;10.10;99.90;;;;;;5072385;28;20482;-61
2023/03/20 04:50:50;;;;;;;33.10;17.50;;;10.10;99.90;;;;;;5076336;28;20489;-61
2023/03/20 04:53:18;;;;;;;46.60;21.87;;;10.00;99.90;;;;;;5070801;28;20466;-61
2023/03/20 04:55:45;;;;;;;49.03;21.57;;;9.90;99.90;;;;;;5067688;28;20895;-61
2023/03/20 04:58:12;;;;;;;49.60;22.80;;;9.90;99.90;;;;;;5067784;28;20503;-60
2023/03/20 05:00:39;;;;;;;51.27;22.90;;;9.90;99.90;;;;;;5083465;28;20485;-61
2023/03/20 05:03:07;;;;;;;48.80;20.53;;;9.80;99.90;;;;;;5096928;28;20476;-61
2023/03/20 05:05:36;;;;;;;38.90;18.13;;;9.80;99.90;;;;;;5077684;28;20486;-61
2023/03/20 05:08:03;;;;;;;42.00;19.97;;;9.90;99.90;;;;;;5068724;28;20995;-61
2023/03/20 05:10:30;;;;;;;63.67;24.87;;;9.90;99.90;;;;;;5065896;27;21154;-61
2023/03/20 05:12:57;;;;;;;49.47;22.40;;;9.90;99.90;;;;;;5083151;28;20538;-61
2023/03/20 05:15:24;;;;;;;67.63;29.13;;;9.80;99.90;;;;;;5077516;28;20474;-60
2023/03/20 05:17:50;;;;;;;59.37;22.63;;;12.10;99.90;;;;;;5078747;28;20600;-61
2023/03/20 05:20:18;;;;;;;46.60;22.30;;;9.90;99.90;;;;;;5070060;28;20474;-61
2023/03/20 05:22:49;;;;;;;56.67;27.50;;;9.80;99.90;;;;;;5083168;28;20477;-61
2023/03/20 05:25:15;;;;;;;51.77;22.10;;;9.90;99.90;;;;;;5073468;28;20836;-60
2023/03/20 05:27:43;;;;;;;48.07;21.40;;;10.00;99.90;;;;;;5071041;28;20503;-61
2023/03/20 05:30:11;;;;;;;42.60;20.77;;;7.40;99.90;;;;;;5080185;28;20539;-61
2023/03/20 05:32:38;;;;;;;44.60;19.20;;;10.10;99.90;;;;;;5078108;28;20486;-60
2023/03/20 05:35:05;;;;;;;44.13;19.03;;;10.10;99.90;;;;;;5080066;28;20543;-61
2023/03/20 05:37:33;;;;;;;47.80;22.83;;;10.10;99.90;;;;;;5083855;27;20565;-61
2023/03/20 05:40:00;;;;;;;48.97;21.00;;;10.10;99.90;;;;;;5082985;28;20494;-61
2023/03/20 05:42:27;;;;;;;51.17;22.80;;;10.10;99.90;;;;;;5084581;28;20466;-60
2023/03/20 05:44:54;;;;;;;47.90;21.47;;;;;;;;;;5094059;28;20526;-60
2023/03/20 05:47:20;;;;;;;38.43;18.13;;;10.10;99.90;;;;;;5068384;28;20474;-60
2023/03/20 05:49:47;;;;;;;41.43;19.13;;;10.00;99.90;;;;;;5082909;28;20476;-60
2023/03/20 05:52:14;;;;;;;55.07;23.80;;;10.00;99.90;;;;;;5093353;28;20505;-60
2023/03/20 05:54:42;;;;;;;51.00;23.93;;;10.10;99.90;;;;;;5083190;28;20489;-61
2023/03/20 05:57:09;;;;;;;38.17;19.07;;;10.10;99.90;;;;;;5085116;28;20482;-60
2023/03/20 05:59:36;;;;;;;47.47;22.67;;;;;;;;;;5083229;28;20539;-60
2023/03/20 06:02:03;;;;;;;45.77;21.80;;;10.10;99.90;;;;;;5083714;28;21209;-61
2023/03/20 06:04:30;;;;;;;48.13;22.70;;;10.00;99.90;;;;;;5079921;28;21057;-61
2023/03/20 06:06:57;;;;;;;60.90;25.97;;;;;;;;;;5081451;28;20482;-60
2023/03/20 06:09:24;;;;;;;54.73;25.23;;;9.90;99.90;;;;;;5080334;28;20486;-61
2023/03/20 06:11:52;;;;;;;57.93;26.60;;;9.90;99.90;;;;;;5080095;28;20479;-60
2023/03/20 06:14:18;;;;;;;75.07;31.97;;;9.80;99.90;;;;;;5087308;28;20482;-61
2023/03/20 06:16:45;;;;;;;57.50;25.30;;;9.80;99.90;;;;;;5083906;28;20490;-61
2023/03/20 06:19:13;;;;;;;61.73;21.37;;;9.90;99.90;;;;;;5078703;28;21009;-60
2023/03/20 06:21:40;;;;;;;55.70;24.53;;;9.90;99.90;;;;;;5061073;28;20552;-61
2023/03/20 06:24:07;;;;;;;41.90;20.30;;;9.80;99.90;;;;;;5079143;28;20872;-61
2023/03/20 06:26:34;;;;;;;47.93;21.83;;;9.90;99.90;;;;;;5071320;28;21039;-60
2023/03/20 06:29:02;;;;;;;46.80;19.73;;;10.00;99.90;;;;;;5077899;28;20482;-60
2023/03/20 06:31:28;;;;;;;63.80;26.27;;;10.00;99.90;;;;;;5078573;28;20604;-61
2023/03/20 06:33:55;;;;;;;63.20;24.30;;;10.10;99.90;;;;;;5080910;28;20471;-61
2023/03/20 06:36:22;;;;;;;65.83;27.93;;;10.00;99.90;;;;;;5070807;28;20537;-61
2023/03/20 06:38:49;;;;;;;48.67;23.83;;;10.00;99.90;;;;;;5099651;28;20534;-60
2023/03/20 06:41:15;;;;;;;49.37;23.20;;;9.90;99.90;;;;;;5082484;28;21388;-60
2023/03/20 06:43:43;;;;;;;40.13;19.33;;;;;;;;;;5078741;28;20531;-61
2023/03/20 06:46:11;;;;;;;42.80;20.47;;;9.90;99.90;;;;;;5093903;28;21060;-60
2023/03/20 06:48:38;;;;;;;37.00;18.50;;;10.00;99.90;;;;;;5076831;28;21014;-61
2023/03/20 06:51:05;;;;;;;46.33;21.83;;;10.00;99.90;;;;;;5076902;28;20528;-61
2023/03/20 06:53:31;;;;;;;43.80;20.57;;;10.00;99.90;;;;;;5078393;28;20998;-61
2023/03/20 06:55:58;;;;;;;44.73;19.23;;;10.00;99.90;;;;;;5074470;28;20869;-61
2023/03/20 06:58:25;;;;;;;40.13;15.83;;;9.90;99.90;;;;;;5061964;28;20974;-61
2023/03/20 07:00:53;;;;;;;54.33;18.87;;;10.00;99.90;;;;;;5074593;28;20713;-60
2023/03/20 07:03:21;;;;;;;51.17;24.23;;;9.90;99.90;;;;;;5076214;28;20483;-60
2023/03/20 07:05:48;;;;;;;39.37;17.87;;;10.00;99.90;;;;;;5076487;28;20478;-61
2023/03/20 07:08:15;;;;;;;51.13;19.80;;;10.00;99.90;;;;;;5076934;28;20575;-60
2023/03/20 07:10:41;;;;;;;42.77;18.33;;;10.00;99.90;;;;;;5078910;28;20478;-61
2023/03/20 07:13:09;;;;;;;49.47;20.13;;;10.10;99.90;;;;;;5078554;28;20485;-60
2023/03/20 07:15:36;;;;;;;37.80;18.90;;;10.10;99.90;;;;;;5088421;28;20507;-60
2023/03/20 07:18:03;;;;;;;37.80;18.03;;;10.20;99.90;;;;;;5066850;28;20493;-61
2023/03/20 07:20:31;;;;;;;53.90;24.60;;;10.20;99.90;;;;;;5078665;28;20509;-60
2023/03/20 07:22:57;;;;;;;37.43;17.27;;;10.20;99.90;;;;;;5078385;28;20478;-60
2023/03/20 07:25:24;;;;;;;51.00;22.10;;;10.20;99.90;;;;;;5077940;28;20802;-60
2023/03/20 07:27:51;;;;;;;38.07;14.07;;;10.20;99.90;;;;;;5064728;28;21038;-60
2023/03/20 07:30:18;;;;;;;51.17;23.13;;;10.20;99.90;;;;;;5075019;27;20481;-61
2023/03/20 07:32:45;;;;;;;32.47;16.27;;;10.30;99.90;;;;;;5071169;28;20571;-60
2023/03/20 07:35:12;;;;;;;34.27;13.90;;;10.30;99.90;;;;;;5061151;28;20540;-61
2023/03/20 07:37:40;;;;;;;37.60;18.80;;;10.40;99.90;;;;;;5073528;28;21453;-61
2023/03/20 07:40:08;;;;;;;40.27;19.13;;;10.30;99.90;;;;;;5074150;28;20479;-61
2023/03/20 07:42:35;;;;;;;38.10;19.33;;;10.30;99.90;;;;;;5080647;28;20490;-62
2023/03/20 07:45:02;;;;;;;36.37;19.20;;;10.30;99.90;;;;;;5080610;28;20819;-61
2023/03/20 07:47:28;;;;;;;50.30;22.90;;;10.30;99.90;;;;;;5077155;28;20558;-60
2023/03/20 07:49:55;;;;;;;31.20;16.37;;;10.30;99.90;;;;;;5083546;28;20953;-61
2023/03/20 07:52:22;;;;;;;45.07;20.90;;;10.30;99.90;;;;;;5093461;28;20469;-60
2023/03/20 07:54:50;;;;;;;35.93;15.07;;;10.30;99.90;;;;;;5077625;28;20479;-61
2023/03/20 07:57:17;;;;;;;47.93;18.60;;;10.40;99.90;;;;;;5083644;28;20476;-61
2023/03/20 07:59:44;;;;;;;36.97;18.20;;;10.60;99.90;;;;;;5097880;28;20679;-61
2023/03/20 08:02:15;;;;;;;37.33;19.13;;;10.70;99.90;;;;;;5097951;28;20491;-61
2023/03/20 08:04:41;;;;;;;35.63;17.47;;;10.80;99.90;;;;;;5085366;28;20492;-61
2023/03/20 08:07:08;;;;;;;36.73;16.43;;;10.80;99.90;;;;;;5077767;28;20482;-61
2023/03/20 08:09:35;;;;;;;37.90;19.00;;;10.80;99.90;;;;;;5073492;28;20490;-61
2023/03/20 08:12:03;;;;;;;32.40;16.83;;;10.90;99.90;;;;;;5074471;28;20911;-61
2023/03/20 08:14:30;;;;;;;44.83;19.97;;;10.90;99.90;;;;;;5077058;28;20462;-61
2023/03/20 08:16:57;;;;;;;37.13;18.27;;;11.00;99.90;;;;;;5075292;28;21058;-61
2023/03/20 08:19:25;;;;;;;59.17;21.13;;;11.30;99.90;;;;;;5091306;28;20481;-61
2023/03/20 08:21:51;;;;;;;32.63;16.80;;;11.40;99.90;;;;;;5074575;28;21119;-61
2023/03/20 08:24:18;;;;;;;41.20;21.00;;;11.80;99.90;;;;;;5073579;28;21130;-61
2023/03/20 08:26:45;;;;;;;47.73;16.00;;;12.00;99.90;;;;;;5075690;28;20702;-62
2023/03/20 08:29:16;;;;;;;32.17;13.83;;;12.20;99.90;;;;;;5060007;28;20495;-61
2023/03/20 08:31:42;;;;;;;23.97;12.90;;;12.10;99.90;;;;;;5056315;28;20483;-61
2023/03/20 08:34:09;;;;;;;35.07;15.70;;;12.10;99.90;;;;;;5075098;28;20536;-61
2023/03/20 08:36:36;;;;;;;24.40;13.93;;;10.20;99.30;;;;;;5074027;28;21014;-62
2023/03/20 08:39:03;;;;;;;23.27;13.77;;;12.00;99.90;;;;;;5074650;28;20474;-61
2023/03/20 08:41:30;;;;;;;37.23;16.13;;;11.90;99.90;;;;;;5073520;28;20531;-61
2023/03/20 08:43:57;;;;;;;26.13;14.27;;;11.90;99.90;;;;;;5082222;28;20481;-61
2023/03/20 08:46:25;;;;;;;29.70;14.73;;;11.90;99.90;;;;;;5060373;28;20479;-61
2023/03/20 08:48:51;;;;;;;25.97;10.57;;;12.10;99.90;;;;;;5079329;28;21004;-62
2023/03/20 08:51:18;;;;;;;58.53;30.17;;;12.30;99.90;;;;;;5071878;28;20490;-61
2023/03/20 08:53:45;;;;;;;21.40;10.67;;;12.50;99.90;;;;;;5088678;28;20825;-61
2023/03/20 08:56:12;;;;;;;25.47;11.50;;;13.00;99.70;;;;;;5072538;28;20753;-61
2023/03/20 08:58:38;;;;;;;21.00;12.30;;;13.20;99.30;;;;;;5073009;28;20536;-61
2023/03/20 09:01:07;;;;;;;21.90;12.50;;;13.50;98.70;;;;;;5072350;28;20739;-61
2023/03/20 09:03:35;;;;;;;35.20;14.70;;;13.70;98.30;;;;;;5079988;28;20482;-61
2023/03/20 09:06:05;;;;;;;28.80;14.60;;;13.70;97.60;;;;;;5071903;28;20490;-61
2023/03/20 09:08:32;;;;;;;21.23;10.33;;;13.90;97.90;;;;;;5066742;28;20477;-61
2023/03/20 09:10:59;;;;;;;24.77;12.57;;;13.80;95.90;;;;;;5078107;28;20470;-61
2023/03/20 09:13:26;;;;;;;27.33;13.53;;;13.80;95.30;;;;;;5071926;28;20474;-61
2023/03/20 09:15:53;;;;;;;16.47;9.10;;;13.80;94.70;;;;;;5071610;28;20491;-62
2023/03/20 09:18:20;;;;;;;33.63;11.80;;;13.70;94.20;;;;;;5057850;28;21179;-60
2023/03/20 09:20:49;;;;;;;18.33;10.60;;;13.70;94.90;;;;;;5069429;28;20498;-61
2023/03/20 09:23:17;;;;;;;26.73;12.67;;;13.80;95.30;;;;;;5072940;28;20519;-61
2023/03/20 09:25:44;;;;;;;14.73;8.80;;;13.60;93.70;;;;;;5092106;28;20546;-61
2023/03/20 09:28:11;;;;;;;24.07;11.10;;;13.60;94.90;;;;;;5085876;28;20531;-61
2023/03/20 09:30:37;;;;;;;31.47;12.13;;;13.40;94.70;;;;;;5081466;28;20552;-62
2023/03/20 09:33:04;;;;;;;24.70;10.13;;;13.30;95.30;;;;;;5087620;28;20470;-61
2023/03/20 09:35:31;;;;;;;22.33;10.27;;;13.40;93.20;;;;;;5072621;28;20978;-61
2023/03/20 09:37:59;;;;;;;16.77;9.53;;;13.50;93.90;;;;;;5054588;28;20487;-62
2023/03/20 09:40:29;;;;;;;33.93;14.93;;;13.60;93.70;;;;;;5069024;28;20479;-61
2023/03/20 09:43:02;;;;;;;25.53;12.50;;;13.70;94.50;;;;;;5072056;28;20482;-61
2023/03/20 09:45:43;;;;;;;28.13;13.47;;;13.80;94.30;;;;;;5072637;28;21016;-62
2023/03/20 09:48:19;;;;;;;20.67;9.80;;;13.80;95.80;;;;;;5073960;28;20487;-62
2023/03/20 09:50:55;;;;;;;23.30;8.93;;;13.80;93.40;;;;;;5070549;28;20747;-61
2023/03/20 09:53:29;;;;;;;30.33;13.33;;;13.80;92.80;;;;;;5080624;28;20484;-61
2023/03/20 09:55:57;;;;;;;23.13;11.30;;;;;;;;;;5093013;28;20459;-62
2023/03/20 09:58:26;;;;;;;25.77;13.07;;;13.90;93.30;;;;;;5072220;28;20547;-62
2023/03/20 10:00:57;;;;;;;17.07;8.83;;;13.90;93.70;;;;;;5073522;28;21042;-62
2023/03/20 10:03:28;;;;;;;18.20;8.80;;;14.10;93.00;;;;;;5074545;28;21063;-62
2023/03/20 10:05:57;;;;;;;19.53;8.57;;;14.00;92.30;;;;;;5074907;28;20487;-62
2023/03/20 10:08:29;;;;;;;30.03;14.13;;;14.10;92.70;;;;;;5072368;28;20493;-62
2023/03/20 10:11:11;;;;;;;22.63;12.73;;;14.10;92.90;;;;;;5059626;28;20537;-62
2023/03/20 10:14:07;;;;;;;17.37;8.50;;;14.10;92.30;;;;;;5067245;28;20481;-62
2023/03/20 10:16:45;;;;;;;17.10;8.80;;;13.90;90.50;;;;;;5072559;28;20619;-61
2023/03/20 10:19:20;;;;;;;19.13;7.73;;;13.60;88.70;;;;;;5063963;28;20888;-62
2023/03/20 10:21:52;;;;;;;15.07;5.93;;;13.50;90.20;;;;;;5075804;28;20478;-61
2023/03/20 10:24:26;;;;;;;25.03;11.20;;;13.40;91.10;;;;;;5077136;28;20496;-61
2023/03/20 10:26:55;;;;;;;16.03;8.30;;;13.30;90.60;;;;;;5076645;28;20535;-62
2023/03/20 10:29:29;;;;;;;36.00;16.43;;;13.30;90.30;;;;;;5076624;28;20914;-61
2023/03/20 10:32:06;;;;;;;14.70;8.57;;;13.30;91.10;;;;;;5076293;28;20535;-62
2023/03/20 10:34:48;;;;;;;10.63;6.43;;;13.30;90.20;;;;;;5072095;28;21084;-62
2023/03/20 10:37:33;;;;;;;13.70;8.03;;;13.10;91.30;;;;;;5077367;28;20764;-62
2023/03/20 10:40:23;;;;;;;21.20;8.67;;;13.30;92.50;;;;;;5074187;28;20692;-62
2023/03/20 10:42:52;;;;;;;11.57;7.33;;;13.20;91.80;;;;;;5071906;28;20487;-61
2023/03/20 10:45:29;;;;;;;20.93;10.90;;;13.40;91.50;;;;;;5069350;28;20479;-61
2023/03/20 10:47:59;;;;;;;15.10;8.90;;;13.40;92.20;;;;;;5057318;28;20753;-61
2023/03/20 10:50:31;;;;;;;25.40;11.10;;;13.40;90.60;;;;;;5080020;28;20478;-61
2023/03/20 10:52:59;;;;;;;15.87;8.90;;;13.50;90.80;;;;;;5095556;28;20477;-61
2023/03/20 10:55:32;;;;;;;25.07;11.50;;;13.70;91.30;;;;;;5080952;28;21255;-61
2023/03/20 10:58:06;;;;;;;17.50;5.90;;;13.90;92.00;;;;;;5078175;28;20478;-61
2023/03/20 11:00:32;;;;;;;33.83;11.67;;;14.00;90.40;;;;;;5074938;28;20743;-61
2023/03/20 11:02:59;;;;;;;12.83;7.47;;;13.90;88.80;;;;;;5080236;28;20575;-62
2023/03/20 11:05:31;;;;;;;21.63;8.57;;;13.90;89.30;;;;;;5078809;28;20489;-62
2023/03/20 11:08:04;;;;;;;20.90;9.13;;;13.90;90.40;;;;;;5095723;28;20489;-62
2023/03/20 11:10:34;;;;;;;25.70;10.27;;;13.90;89.90;;;;;;5081689;28;20538;-61
2023/03/20 11:13:18;;;;;;;16.90;8.20;;;13.90;90.00;;;;;;5079566;28;21126;-61
2023/03/20 11:15:45;;;;;;;13.50;6.47;;;13.80;90.30;;;;;;5067255;28;20549;-61
2023/03/20 11:18:15;;;;;;;17.03;8.10;;;13.90;89.40;;;;;;5079023;28;20485;-61
2023/03/20 11:20:47;;;;;;;12.90;6.47;;;13.80;90.90;;;;;;5077992;28;20539;-62
2023/03/20 11:23:17;;;;;;;21.23;8.50;;;13.80;91.40;;;;;;5076569;28;20478;-61
2023/03/20 11:25:51;;;;;;;17.40;9.63;;;13.80;90.50;;;;;;5069878;28;20490;-61
2023/03/20 11:28:29;;;;;;;29.53;12.80;;;13.90;91.50;;;;;;5059121;28;21175;-61
2023/03/20 11:31:02;;;;;;;14.70;8.50;;;13.80;90.80;;;;;;5061636;28;20490;-61
2023/03/20 11:33:29;;;;;;;26.10;14.20;;;;;;;;;;5078170;28;20497;-62
2023/03/20 11:35:58;;;;;;;14.73;8.17;;;13.50;92.20;;;;;;5075535;28;20483;-62
2023/03/20 11:38:25;;;;;;;20.07;11.63;;;13.50;92.20;;;;;;5087785;28;21162;-61
2023/03/20 11:40:55;;;;;;;27.83;11.67;;;13.60;92.10;;;;;;5084770;28;20486;-61
2023/03/20 11:43:24;;;;;;;28.90;14.00;;;13.70;91.90;;;;;;5077529;28;20999;-61
2023/03/20 11:45:55;;;;;;;16.17;9.17;;;13.70;92.10;;;;;;5066597;28;20482;-61
2023/03/20 11:48:24;;;;;;;18.50;8.73;;;13.60;91.80;;;;;;5081557;28;21172;-61
2023/03/20 11:50:58;;;;;;;13.37;8.60;;;13.70;91.20;;;;;;5081061;28;20869;-61
2023/03/20 11:53:28;;;;;;;24.70;11.53;;;13.70;89.70;;;;;;5076190;28;21470;-61
2023/03/20 11:56:15;;;;;;;16.80;9.83;;;13.90;90.30;;;;;;5075142;28;21014;-61
2023/03/20 11:58:50;;;;;;;21.70;8.70;;;13.90;90.40;;;;;;5065666;28;20475;-62
2023/03/20 12:01:17;;;;;;;33.63;11.17;;;13.90;90.00;;;;;;5091456;28;20473;-61
2023/03/20 12:03:54;;;;;;;17.57;10.27;;;13.80;90.00;;;;;;5090052;28;20501;-62
2023/03/20 12:06:24;;;;;;;24.60;11.10;;;13.80;90.10;;;;;;5073137;28;20796;-62
2023/03/20 12:08:55;;;;;;;12.33;6.10;;;13.90;90.10;;;;;;5076014;28;20483;-62
2023/03/20 12:11:42;;;;;;;26.57;11.83;;;13.80;90.50;;;;;;5074341;28;20528;-62
2023/03/20 12:14:21;;;;;;;14.13;6.63;;;13.80;90.00;;;;;;5069680;28;20926;-62
2023/03/20 12:16:52;;;;;;;18.50;7.07;;;13.70;88.10;;;;;;5077921;28;20529;-62
2023/03/20 12:19:22;;;;;;;16.90;10.40;;;13.70;90.00;;;;;;5073943;28;20780;-62
2023/03/20 12:21:55;;;;;;;12.67;7.40;;;13.90;88.80;;;;;;5075089;28;20539;-61
2023/03/20 12:24:31;;;;;;;27.37;13.37;;;14.10;89.50;;;;;;5080598;28;20490;-62
2023/03/20 12:27:14;;;;;;;20.07;9.30;;;14.20;88.20;;;;;;5076024;28;20890;-62
2023/03/20 12:29:48;;;;;;;11.27;7.40;;;14.20;87.80;;;;;;5074710;28;20559;-61
2023/03/20 12:32:20;;;;;;;18.93;9.37;;;14.30;88.40;;;;;;5074721;28;21332;-62
2023/03/20 12:34:50;;;;;;;9.73;5.67;;;14.40;88.50;;;;;;5079512;28;20630;-62
2023/03/20 12:37:17;;;;;;;19.90;12.23;;;14.40;88.70;;;;;;5072786;28;20647;-62
2023/03/20 12:39:49;;;;;;;8.50;5.80;;;14.30;89.10;;;;;;5057936;28;20570;-61
2023/03/20 12:42:38;;;;;;;15.73;9.47;;;14.10;87.20;;;;;;5071523;28;20469;-62
2023/03/20 12:45:11;;;;;;;15.17;7.17;;;13.90;87.50;;;;;;5088263;28;20482;-61